sensor_id;sensor_type;location;lat;lon;timestamp;P1;durP1;ratioP1;P2;durP2;ratioP2
3527;SDS011;1778;47.966;7.854;2022-12-07T00:00:27;5.27;;;4.40;;
3527;SDS011;1778;47.966;7.854;2022-12-07T00:01:33;5.10;;;4.60;;
3527;SDS011;1778;47.966;7.854;2022-12-07T00:02:36;5.40;;;4.40;;
3527;SDS011;1778;47.966;7.854;2022-12-07T00:03:38;4.67;;;4.27;;
3527;SDS011;1778;47.966;7.854;2022-12-07T00:04:40;4.97;;;4.53;;
3527;SDS011;1778;47.966;7.854;2022-12-07T00:05:42;6.33;;;5.00;;
3527;SDS011;1778;47.966;7.854;2022-12-07T00:06:44;4.90;;;4.47;;
3527;SDS011;1778;47.966;7.854;2022-12-07T00:07:47;4.73;;;4.17;;
3527;SDS011;1778;47.966;7.854;2022-12-07T00:08:48;4.17;;;3.90;;
3527;SDS011;1778;47.966;7.854;2022-12-07T00:09:50;3.53;;;3.33;;
3527;SDS011;1778;47.966;7.854;2022-12-07T00:10:51;4.20;;;3.80;;
3527;SDS011;1778;47.966;7.854;2022-12-07T00:11:52;4.83;;;4.43;;
3527;SDS011;1778;47.966;7.854;2022-12-07T00:12:54;3.30;;;3.20;;
3527;SDS011;1778;47.966;7.854;2022-12-07T00:13:59;4.97;;;4.53;;
3527;SDS011;1778;47.966;7.854;2022-12-07T00:15:03;5.27;;;4.20;;
3527;SDS011;1778;47.966;7.854;2022-12-07T00:16:09;5.30;;;4.27;;
3527;SDS011;1778;47.966;7.854;2022-12-07T00:17:15;8.73;;;4.33;;
3527;SDS011;1778;47.966;7.854;2022-12-07T00:18:17;4.90;;;4.50;;
3527;SDS011;1778;47.966;7.854;2022-12-07T00:19:18;4.37;;;3.97;;
3527;SDS011;1778;47.966;7.854;2022-12-07T00:20:20;3.40;;;3.20;;
3527;SDS011;1778;47.966;7.854;2022-12-07T00:21:23;4.57;;;3.80;;
3527;SDS011;1778;47.966;7.854;2022-12-07T00:22:26;6.63;;;5.40;;
3527;SDS011;1778;47.966;7.854;2022-12-07T00:23:27;6.80;;;4.60;;
3527;SDS011;1778;47.966;7.854;2022-12-07T00:24:29;5.07;;;4.67;;
3527;SDS011;1778;47.966;7.854;2022-12-07T00:25:30;5.07;;;4.50;;
3527;SDS011;1778;47.966;7.854;2022-12-07T00:26:35;7.47;;;4.37;;
3527;SDS011;1778;47.966;7.854;2022-12-07T00:27:39;12.70;;;4.20;;
3527;SDS011;1778;47.966;7.854;2022-12-07T00:28:41;4.50;;;4.20;;
3527;SDS011;1778;47.966;7.854;2022-12-07T00:29:49;8.67;;;4.90;;
3527;SDS011;1778;47.966;7.854;2022-12-07T00:30:50;4.30;;;3.90;;
3527;SDS011;1778;47.966;7.854;2022-12-07T00:31:52;5.00;;;4.60;;
3527;SDS011;1778;47.966;7.854;2022-12-07T00:32:54;5.17;;;4.83;;
3527;SDS011;1778;47.966;7.854;2022-12-07T00:33:55;4.00;;;3.60;;
3527;SDS011;1778;47.966;7.854;2022-12-07T00:34:58;5.80;;;3.40;;
3527;SDS011;1778;47.966;7.854;2022-12-07T00:36:00;4.97;;;4.47;;
3527;SDS011;1778;47.966;7.854;2022-12-07T00:37:02;4.53;;;4.20;;
3527;SDS011;1778;47.966;7.854;2022-12-07T00:38:03;5.57;;;4.40;;
3527;SDS011;1778;47.966;7.854;2022-12-07T00:39:05;5.63;;;4.60;;
3527;SDS011;1778;47.966;7.854;2022-12-07T00:40:06;4.03;;;3.57;;
3527;SDS011;1778;47.966;7.854;2022-12-07T00:42:14;3.93;;;3.63;;
3527;SDS011;1778;47.966;7.854;2022-12-07T00:43:15;5.37;;;3.90;;
3527;SDS011;1778;47.966;7.854;2022-12-07T00:44:17;5.53;;;5.13;;
3527;SDS011;1778;47.966;7.854;2022-12-07T00:45:19;5.53;;;4.40;;
3527;SDS011;1778;47.966;7.854;2022-12-07T00:46:23;4.33;;;4.10;;
3527;SDS011;1778;47.966;7.854;2022-12-07T00:47:25;3.83;;;3.63;;
3527;SDS011;1778;47.966;7.854;2022-12-07T00:48:27;6.13;;;5.60;;
3527;SDS011;1778;47.966;7.854;2022-12-07T00:49:28;4.73;;;4.03;;
3527;SDS011;1778;47.966;7.854;2022-12-07T00:50:30;4.20;;;3.70;;
3527;SDS011;1778;47.966;7.854;2022-12-07T00:51:31;5.30;;;4.90;;
3527;SDS011;1778;47.966;7.854;2022-12-07T00:52:33;5.87;;;4.70;;
3527;SDS011;1778;47.966;7.854;2022-12-07T00:53:35;5.27;;;4.07;;
3527;SDS011;1778;47.966;7.854;2022-12-07T00:54:41;5.00;;;4.50;;
3527;SDS011;1778;47.966;7.854;2022-12-07T00:55:43;2.93;;;2.73;;
3527;SDS011;1778;47.966;7.854;2022-12-07T00:56:45;4.43;;;4.07;;
3527;SDS011;1778;47.966;7.854;2022-12-07T00:57:47;6.07;;;3.77;;
3527;SDS011;1778;47.966;7.854;2022-12-07T00:58:51;8.00;;;4.57;;
3527;SDS011;1778;47.966;7.854;2022-12-07T01:00:00;4.27;;;3.90;;
3527;SDS011;1778;47.966;7.854;2022-12-07T01:01:03;4.60;;;4.23;;
3527;SDS011;1778;47.966;7.854;2022-12-07T01:02:06;3.70;;;3.40;;
3527;SDS011;1778;47.966;7.854;2022-12-07T01:03:08;6.90;;;5.73;;
3527;SDS011;1778;47.966;7.854;2022-12-07T01:04:11;4.33;;;4.03;;
3527;SDS011;1778;47.966;7.854;2022-12-07T01:05:12;5.53;;;3.87;;
3527;SDS011;1778;47.966;7.854;2022-12-07T01:06:15;5.23;;;4.20;;
3527;SDS011;1778;47.966;7.854;2022-12-07T01:07:18;4.53;;;4.13;;
3527;SDS011;1778;47.966;7.854;2022-12-07T01:08:19;11.40;;;4.60;;
3527;SDS011;1778;47.966;7.854;2022-12-07T01:09:21;5.30;;;4.17;;
3527;SDS011;1778;47.966;7.854;2022-12-07T01:10:23;3.87;;;3.67;;
3527;SDS011;1778;47.966;7.854;2022-12-07T01:11:26;4.83;;;4.40;;
3527;SDS011;1778;47.966;7.854;2022-12-07T01:12:29;4.83;;;4.27;;
3527;SDS011;1778;47.966;7.854;2022-12-07T01:13:30;4.30;;;4.10;;
3527;SDS011;1778;47.966;7.854;2022-12-07T01:14:32;4.80;;;4.43;;
3527;SDS011;1778;47.966;7.854;2022-12-07T01:15:34;5.10;;;3.67;;
3527;SDS011;1778;47.966;7.854;2022-12-07T01:16:39;5.47;;;3.83;;
3527;SDS011;1778;47.966;7.854;2022-12-07T01:17:41;5.97;;;4.13;;
3527;SDS011;1778;47.966;7.854;2022-12-07T01:18:44;4.40;;;4.10;;
3527;SDS011;1778;47.966;7.854;2022-12-07T01:19:47;5.00;;;4.40;;
3527;SDS011;1778;47.966;7.854;2022-12-07T01:21:05;4.83;;;4.33;;
3527;SDS011;1778;47.966;7.854;2022-12-07T01:22:17;5.50;;;4.43;;
3527;SDS011;1778;47.966;7.854;2022-12-07T01:23:18;5.07;;;4.67;;
3527;SDS011;1778;47.966;7.854;2022-12-07T01:24:19;5.13;;;3.33;;
3527;SDS011;1778;47.966;7.854;2022-12-07T01:25:21;4.33;;;4.00;;
3527;SDS011;1778;47.966;7.854;2022-12-07T01:26:23;5.40;;;3.90;;
3527;SDS011;1778;47.966;7.854;2022-12-07T01:27:25;7.57;;;4.60;;
3527;SDS011;1778;47.966;7.854;2022-12-07T01:28:27;4.00;;;3.73;;
3527;SDS011;1778;47.966;7.854;2022-12-07T01:29:29;5.80;;;5.00;;
3527;SDS011;1778;47.966;7.854;2022-12-07T01:30:30;5.13;;;4.47;;
3527;SDS011;1778;47.966;7.854;2022-12-07T01:31:32;3.87;;;3.60;;
3527;SDS011;1778;47.966;7.854;2022-12-07T01:32:34;4.80;;;4.40;;
3527;SDS011;1778;47.966;7.854;2022-12-07T01:33:36;4.50;;;3.40;;
3527;SDS011;1778;47.966;7.854;2022-12-07T01:34:38;4.53;;;4.23;;
3527;SDS011;1778;47.966;7.854;2022-12-07T01:35:39;3.97;;;3.30;;
3527;SDS011;1778;47.966;7.854;2022-12-07T01:36:41;4.53;;;4.23;;
3527;SDS011;1778;47.966;7.854;2022-12-07T01:37:42;4.40;;;3.37;;
3527;SDS011;1778;47.966;7.854;2022-12-07T01:38:44;5.87;;;4.43;;
3527;SDS011;1778;47.966;7.854;2022-12-07T01:39:50;10.10;;;5.60;;
3527;SDS011;1778;47.966;7.854;2022-12-07T01:40:55;5.30;;;4.80;;
3527;SDS011;1778;47.966;7.854;2022-12-07T01:41:57;6.07;;;3.90;;
3527;SDS011;1778;47.966;7.854;2022-12-07T01:42:59;3.43;;;3.10;;
3527;SDS011;1778;47.966;7.854;2022-12-07T01:44:14;3.53;;;3.33;;
3527;SDS011;1778;47.966;7.854;2022-12-07T01:46:56;5.37;;;4.90;;
3527;SDS011;1778;47.966;7.854;2022-12-07T01:47:59;4.00;;;3.60;;
3527;SDS011;1778;47.966;7.854;2022-12-07T01:49:01;3.53;;;3.33;;
3527;SDS011;1778;47.966;7.854;2022-12-07T01:50:04;4.07;;;3.87;;
3527;SDS011;1778;47.966;7.854;2022-12-07T01:51:08;4.40;;;4.00;;
3527;SDS011;1778;47.966;7.854;2022-12-07T01:52:17;6.53;;;5.60;;
3527;SDS011;1778;47.966;7.854;2022-12-07T01:53:25;4.73;;;4.37;;
3527;SDS011;1778;47.966;7.854;2022-12-07T01:54:30;7.53;;;4.03;;
3527;SDS011;1778;47.966;7.854;2022-12-07T01:55:33;4.93;;;4.43;;
3527;SDS011;1778;47.966;7.854;2022-12-07T01:56:38;5.43;;;4.60;;
3527;SDS011;1778;47.966;7.854;2022-12-07T01:57:45;4.43;;;4.03;;
3527;SDS011;1778;47.966;7.854;2022-12-07T01:58:52;4.40;;;3.80;;
3527;SDS011;1778;47.966;7.854;2022-12-07T01:59:57;5.03;;;4.40;;
3527;SDS011;1778;47.966;7.854;2022-12-07T02:01:12;5.57;;;5.13;;
3527;SDS011;1778;47.966;7.854;2022-12-07T02:02:18;3.73;;;3.53;;
3527;SDS011;1778;47.966;7.854;2022-12-07T02:03:39;4.10;;;3.77;;
3527;SDS011;1778;47.966;7.854;2022-12-07T02:04:43;3.93;;;3.73;;
3527;SDS011;1778;47.966;7.854;2022-12-07T02:05:45;5.90;;;4.60;;
3527;SDS011;1778;47.966;7.854;2022-12-07T02:06:48;4.90;;;4.43;;
3527;SDS011;1778;47.966;7.854;2022-12-07T02:07:50;4.27;;;4.07;;
3527;SDS011;1778;47.966;7.854;2022-12-07T02:08:56;5.70;;;4.57;;
3527;SDS011;1778;47.966;7.854;2022-12-07T02:10:11;4.10;;;3.90;;
3527;SDS011;1778;47.966;7.854;2022-12-07T02:11:20;5.23;;;4.63;;
3527;SDS011;1778;47.966;7.854;2022-12-07T02:12:22;5.20;;;4.80;;
3527;SDS011;1778;47.966;7.854;2022-12-07T02:13:26;3.53;;;3.37;;
3527;SDS011;1778;47.966;7.854;2022-12-07T02:14:30;3.80;;;3.50;;
3527;SDS011;1778;47.966;7.854;2022-12-07T02:15:34;4.67;;;4.23;;
3527;SDS011;1778;47.966;7.854;2022-12-07T02:18:15;4.87;;;4.40;;
3527;SDS011;1778;47.966;7.854;2022-12-07T02:23:41;6.73;;;4.53;;
3527;SDS011;1778;47.966;7.854;2022-12-07T02:24:54;6.20;;;5.70;;
3527;SDS011;1778;47.966;7.854;2022-12-07T02:26:46;7.40;;;5.30;;
3527;SDS011;1778;47.966;7.854;2022-12-07T02:29:14;6.13;;;5.53;;
3527;SDS011;1778;47.966;7.854;2022-12-07T02:30:23;7.80;;;6.63;;
3527;SDS011;1778;47.966;7.854;2022-12-07T02:31:32;8.50;;;6.60;;
3527;SDS011;1778;47.966;7.854;2022-12-07T02:33:57;10.20;;;6.60;;
3527;SDS011;1778;47.966;7.854;2022-12-07T02:35:12;7.17;;;6.40;;
3527;SDS011;1778;47.966;7.854;2022-12-07T02:36:29;7.90;;;5.77;;
3527;SDS011;1778;47.966;7.854;2022-12-07T02:38:47;7.10;;;6.40;;
3527;SDS011;1778;47.966;7.854;2022-12-07T02:40:00;16.30;;;5.77;;
3527;SDS011;1778;47.966;7.854;2022-12-07T02:41:28;7.07;;;5.87;;
3527;SDS011;1778;47.966;7.854;2022-12-07T02:42:42;6.27;;;5.43;;
3527;SDS011;1778;47.966;7.854;2022-12-07T02:43:50;7.83;;;7.13;;
3527;SDS011;1778;47.966;7.854;2022-12-07T02:44:55;6.00;;;5.60;;
3527;SDS011;1778;47.966;7.854;2022-12-07T02:45:59;7.20;;;5.83;;
3527;SDS011;1778;47.966;7.854;2022-12-07T02:47:06;9.53;;;5.50;;
3527;SDS011;1778;47.966;7.854;2022-12-07T02:48:12;7.40;;;6.70;;
3527;SDS011;1778;47.966;7.854;2022-12-07T02:49:16;7.63;;;6.70;;
3527;SDS011;1778;47.966;7.854;2022-12-07T02:50:20;7.60;;;6.57;;
3527;SDS011;1778;47.966;7.854;2022-12-07T02:51:22;8.73;;;5.87;;
3527;SDS011;1778;47.966;7.854;2022-12-07T02:52:23;7.70;;;7.00;;
3527;SDS011;1778;47.966;7.854;2022-12-07T02:53:31;6.60;;;6.00;;
3527;SDS011;1778;47.966;7.854;2022-12-07T02:54:34;10.83;;;6.57;;
3527;SDS011;1778;47.966;7.854;2022-12-07T02:55:36;7.10;;;6.03;;
3527;SDS011;1778;47.966;7.854;2022-12-07T02:57:52;7.57;;;6.97;;
3527;SDS011;1778;47.966;7.854;2022-12-07T03:00:44;6.33;;;5.70;;
3527;SDS011;1778;47.966;7.854;2022-12-07T03:03:18;12.20;;;7.53;;
3527;SDS011;1778;47.966;7.854;2022-12-07T03:05:27;7.60;;;7.03;;
3527;SDS011;1778;47.966;7.854;2022-12-07T03:08:34;7.67;;;7.00;;
3527;SDS011;1778;47.966;7.854;2022-12-07T03:11:08;10.30;;;6.90;;
3527;SDS011;1778;47.966;7.854;2022-12-07T03:12:20;8.23;;;7.57;;
3527;SDS011;1778;47.966;7.854;2022-12-07T03:13:41;8.57;;;7.80;;
3527;SDS011;1778;47.966;7.854;2022-12-07T03:14:55;9.73;;;8.90;;
3527;SDS011;1778;47.966;7.854;2022-12-07T03:16:17;7.33;;;6.87;;
3527;SDS011;1778;47.966;7.854;2022-12-07T03:17:24;8.27;;;7.53;;
3527;SDS011;1778;47.966;7.854;2022-12-07T03:18:31;7.83;;;5.97;;
3527;SDS011;1778;47.966;7.854;2022-12-07T03:19:38;6.73;;;6.40;;
3527;SDS011;1778;47.966;7.854;2022-12-07T03:20:42;6.03;;;5.73;;
3527;SDS011;1778;47.966;7.854;2022-12-07T03:21:58;5.80;;;5.60;;
3527;SDS011;1778;47.966;7.854;2022-12-07T03:23:04;5.70;;;5.50;;
3527;SDS011;1778;47.966;7.854;2022-12-07T03:24:17;6.00;;;5.70;;
3527;SDS011;1778;47.966;7.854;2022-12-07T03:25:21;6.40;;;6.10;;
3527;SDS011;1778;47.966;7.854;2022-12-07T03:26:25;6.33;;;6.07;;
3527;SDS011;1778;47.966;7.854;2022-12-07T03:27:38;6.60;;;6.30;;
3527;SDS011;1778;47.966;7.854;2022-12-07T03:28:49;5.63;;;5.43;;
3527;SDS011;1778;47.966;7.854;2022-12-07T03:30:04;5.33;;;5.13;;
3527;SDS011;1778;47.966;7.854;2022-12-07T03:31:35;5.93;;;5.63;;
3527;SDS011;1778;47.966;7.854;2022-12-07T03:32:43;5.80;;;5.60;;
3527;SDS011;1778;47.966;7.854;2022-12-07T03:36:32;5.07;;;4.87;;
3527;SDS011;1778;47.966;7.854;2022-12-07T03:37:46;6.43;;;5.83;;
3527;SDS011;1778;47.966;7.854;2022-12-07T03:39:01;6.27;;;5.77;;
3527;SDS011;1778;47.966;7.854;2022-12-07T03:40:07;6.13;;;5.87;;
3527;SDS011;1778;47.966;7.854;2022-12-07T03:41:23;5.77;;;5.57;;
3527;SDS011;1778;47.966;7.854;2022-12-07T03:42:28;6.03;;;5.73;;
3527;SDS011;1778;47.966;7.854;2022-12-07T03:43:31;6.33;;;6.03;;
3527;SDS011;1778;47.966;7.854;2022-12-07T03:44:34;6.93;;;6.43;;
3527;SDS011;1778;47.966;7.854;2022-12-07T03:45:41;6.17;;;5.87;;
3527;SDS011;1778;47.966;7.854;2022-12-07T03:49:12;4.80;;;4.70;;
3527;SDS011;1778;47.966;7.854;2022-12-07T03:50:28;4.80;;;4.60;;
3527;SDS011;1778;47.966;7.854;2022-12-07T03:51:40;5.20;;;5.00;;
3527;SDS011;1778;47.966;7.854;2022-12-07T03:53:05;5.17;;;4.93;;
3527;SDS011;1778;47.966;7.854;2022-12-07T03:54:18;4.80;;;4.60;;
3527;SDS011;1778;47.966;7.854;2022-12-07T03:55:28;5.30;;;4.83;;
3527;SDS011;1778;47.966;7.854;2022-12-07T03:56:32;4.57;;;4.47;;
3527;SDS011;1778;47.966;7.854;2022-12-07T03:57:34;5.60;;;5.30;;
3527;SDS011;1778;47.966;7.854;2022-12-07T03:58:38;5.17;;;4.97;;
3527;SDS011;1778;47.966;7.854;2022-12-07T03:59:40;5.77;;;5.50;;
3527;SDS011;1778;47.966;7.854;2022-12-07T04:00:43;5.60;;;5.40;;
3527;SDS011;1778;47.966;7.854;2022-12-07T04:01:45;5.30;;;5.10;;
3527;SDS011;1778;47.966;7.854;2022-12-07T04:02:56;5.73;;;5.63;;
3527;SDS011;1778;47.966;7.854;2022-12-07T04:03:58;5.00;;;4.80;;
3527;SDS011;1778;47.966;7.854;2022-12-07T04:05:01;5.60;;;5.40;;
3527;SDS011;1778;47.966;7.854;2022-12-07T04:06:03;7.20;;;6.60;;
3527;SDS011;1778;47.966;7.854;2022-12-07T04:07:05;5.07;;;4.87;;
3527;SDS011;1778;47.966;7.854;2022-12-07T04:08:06;5.67;;;5.47;;
3527;SDS011;1778;47.966;7.854;2022-12-07T04:09:08;5.90;;;5.70;;
3527;SDS011;1778;47.966;7.854;2022-12-07T04:10:10;5.10;;;4.80;;
3527;SDS011;1778;47.966;7.854;2022-12-07T04:11:12;5.30;;;5.20;;
3527;SDS011;1778;47.966;7.854;2022-12-07T04:12:13;5.10;;;5.00;;
3527;SDS011;1778;47.966;7.854;2022-12-07T04:13:14;6.17;;;5.77;;
3527;SDS011;1778;47.966;7.854;2022-12-07T04:14:16;4.77;;;4.67;;
3527;SDS011;1778;47.966;7.854;2022-12-07T04:15:21;4.90;;;4.77;;
3527;SDS011;1778;47.966;7.854;2022-12-07T04:16:22;5.50;;;5.20;;
3527;SDS011;1778;47.966;7.854;2022-12-07T04:17:24;4.83;;;4.60;;
3527;SDS011;1778;47.966;7.854;2022-12-07T04:18:26;5.27;;;5.07;;
3527;SDS011;1778;47.966;7.854;2022-12-07T04:19:31;6.10;;;5.80;;
3527;SDS011;1778;47.966;7.854;2022-12-07T04:20:34;5.03;;;4.93;;
3527;SDS011;1778;47.966;7.854;2022-12-07T04:21:35;5.00;;;4.80;;
3527;SDS011;1778;47.966;7.854;2022-12-07T04:22:36;5.13;;;4.57;;
3527;SDS011;1778;47.966;7.854;2022-12-07T04:23:38;5.03;;;4.83;;
3527;SDS011;1778;47.966;7.854;2022-12-07T04:24:39;4.70;;;4.60;;
3527;SDS011;1778;47.966;7.854;2022-12-07T04:25:41;5.10;;;5.00;;
3527;SDS011;1778;47.966;7.854;2022-12-07T04:26:43;5.00;;;4.90;;
3527;SDS011;1778;47.966;7.854;2022-12-07T04:27:45;4.50;;;4.40;;
3527;SDS011;1778;47.966;7.854;2022-12-07T04:28:46;5.87;;;5.67;;
3527;SDS011;1778;47.966;7.854;2022-12-07T04:29:48;4.80;;;4.70;;
3527;SDS011;1778;47.966;7.854;2022-12-07T04:30:49;5.30;;;5.10;;
3527;SDS011;1778;47.966;7.854;2022-12-07T04:31:51;4.83;;;4.73;;
3527;SDS011;1778;47.966;7.854;2022-12-07T04:32:53;5.13;;;4.93;;
3527;SDS011;1778;47.966;7.854;2022-12-07T04:33:54;5.10;;;4.90;;
3527;SDS011;1778;47.966;7.854;2022-12-07T04:34:55;5.60;;;5.40;;
3527;SDS011;1778;47.966;7.854;2022-12-07T04:35:57;4.80;;;4.70;;
3527;SDS011;1778;47.966;7.854;2022-12-07T04:36:58;5.63;;;5.20;;
3527;SDS011;1778;47.966;7.854;2022-12-07T04:38:00;4.73;;;4.60;;
3527;SDS011;1778;47.966;7.854;2022-12-07T04:39:02;4.50;;;4.40;;
3527;SDS011;1778;47.966;7.854;2022-12-07T04:40:04;4.67;;;4.57;;
3527;SDS011;1778;47.966;7.854;2022-12-07T04:41:12;4.30;;;4.20;;
3527;SDS011;1778;47.966;7.854;2022-12-07T04:42:13;5.07;;;4.90;;
3527;SDS011;1778;47.966;7.854;2022-12-07T04:43:15;4.77;;;4.57;;
3527;SDS011;1778;47.966;7.854;2022-12-07T04:44:16;4.63;;;4.43;;
3527;SDS011;1778;47.966;7.854;2022-12-07T04:45:19;4.83;;;4.73;;
3527;SDS011;1778;47.966;7.854;2022-12-07T04:46:20;4.70;;;4.60;;
3527;SDS011;1778;47.966;7.854;2022-12-07T04:47:23;5.10;;;5.00;;
3527;SDS011;1778;47.966;7.854;2022-12-07T04:48:24;5.20;;;4.97;;
3527;SDS011;1778;47.966;7.854;2022-12-07T04:49:44;5.30;;;5.10;;
3527;SDS011;1778;47.966;7.854;2022-12-07T04:50:47;4.70;;;4.60;;
3527;SDS011;1778;47.966;7.854;2022-12-07T04:51:52;5.00;;;4.90;;
3527;SDS011;1778;47.966;7.854;2022-12-07T04:52:54;5.00;;;4.80;;
3527;SDS011;1778;47.966;7.854;2022-12-07T04:53:55;4.80;;;4.70;;
3527;SDS011;1778;47.966;7.854;2022-12-07T04:54:57;5.70;;;5.50;;
3527;SDS011;1778;47.966;7.854;2022-12-07T04:55:58;5.23;;;5.03;;
3527;SDS011;1778;47.966;7.854;2022-12-07T04:57:01;5.27;;;5.00;;
3527;SDS011;1778;47.966;7.854;2022-12-07T04:58:03;4.87;;;4.63;;
3527;SDS011;1778;47.966;7.854;2022-12-07T04:59:04;5.30;;;5.17;;
3527;SDS011;1778;47.966;7.854;2022-12-07T05:00:06;4.87;;;4.77;;
3527;SDS011;1778;47.966;7.854;2022-12-07T05:01:08;5.00;;;4.87;;
3527;SDS011;1778;47.966;7.854;2022-12-07T05:02:10;5.20;;;5.00;;
3527;SDS011;1778;47.966;7.854;2022-12-07T05:03:12;4.83;;;4.73;;
3527;SDS011;1778;47.966;7.854;2022-12-07T05:04:13;5.33;;;5.13;;
3527;SDS011;1778;47.966;7.854;2022-12-07T05:05:16;4.60;;;4.50;;
3527;SDS011;1778;47.966;7.854;2022-12-07T05:06:18;4.10;;;4.10;;
3527;SDS011;1778;47.966;7.854;2022-12-07T05:07:20;4.97;;;4.87;;
3527;SDS011;1778;47.966;7.854;2022-12-07T05:08:21;4.97;;;4.87;;
3527;SDS011;1778;47.966;7.854;2022-12-07T05:09:23;4.47;;;4.37;;
3527;SDS011;1778;47.966;7.854;2022-12-07T05:10:24;4.57;;;4.47;;
3527;SDS011;1778;47.966;7.854;2022-12-07T05:11:26;4.93;;;4.83;;
3527;SDS011;1778;47.966;7.854;2022-12-07T05:12:40;5.13;;;4.97;;
3527;SDS011;1778;47.966;7.854;2022-12-07T05:13:41;4.87;;;4.77;;
3527;SDS011;1778;47.966;7.854;2022-12-07T05:14:43;4.33;;;4.23;;
3527;SDS011;1778;47.966;7.854;2022-12-07T05:15:44;6.50;;;6.20;;
3527;SDS011;1778;47.966;7.854;2022-12-07T05:16:48;5.00;;;4.90;;
3527;SDS011;1778;47.966;7.854;2022-12-07T05:17:51;6.90;;;5.10;;
3527;SDS011;1778;47.966;7.854;2022-12-07T05:18:53;5.40;;;5.00;;
3527;SDS011;1778;47.966;7.854;2022-12-07T05:19:55;5.03;;;4.83;;
3527;SDS011;1778;47.966;7.854;2022-12-07T05:20:56;4.67;;;4.57;;
3527;SDS011;1778;47.966;7.854;2022-12-07T05:21:57;5.10;;;4.90;;
3527;SDS011;1778;47.966;7.854;2022-12-07T05:22:59;4.40;;;4.30;;
3527;SDS011;1778;47.966;7.854;2022-12-07T05:24:01;5.00;;;4.90;;
3527;SDS011;1778;47.966;7.854;2022-12-07T05:25:03;5.13;;;5.03;;
3527;SDS011;1778;47.966;7.854;2022-12-07T05:26:04;4.70;;;4.60;;
3527;SDS011;1778;47.966;7.854;2022-12-07T05:27:06;4.60;;;4.50;;
3527;SDS011;1778;47.966;7.854;2022-12-07T05:28:07;5.50;;;5.30;;
3527;SDS011;1778;47.966;7.854;2022-12-07T05:29:10;4.73;;;4.63;;
3527;SDS011;1778;47.966;7.854;2022-12-07T05:30:13;4.83;;;4.73;;
3527;SDS011;1778;47.966;7.854;2022-12-07T05:31:15;4.90;;;4.80;;
3527;SDS011;1778;47.966;7.854;2022-12-07T05:32:16;4.60;;;4.50;;
3527;SDS011;1778;47.966;7.854;2022-12-07T05:33:18;4.77;;;4.67;;
3527;SDS011;1778;47.966;7.854;2022-12-07T05:34:19;5.00;;;4.80;;
3527;SDS011;1778;47.966;7.854;2022-12-07T05:35:21;4.83;;;4.73;;
3527;SDS011;1778;47.966;7.854;2022-12-07T05:36:23;4.57;;;4.47;;
3527;SDS011;1778;47.966;7.854;2022-12-07T05:37:24;4.60;;;4.50;;
3527;SDS011;1778;47.966;7.854;2022-12-07T05:38:26;5.13;;;5.03;;
3527;SDS011;1778;47.966;7.854;2022-12-07T05:39:27;4.77;;;4.67;;
3527;SDS011;1778;47.966;7.854;2022-12-07T05:40:29;4.53;;;4.43;;
3527;SDS011;1778;47.966;7.854;2022-12-07T05:41:30;5.23;;;5.10;;
3527;SDS011;1778;47.966;7.854;2022-12-07T05:42:50;5.10;;;5.00;;
3527;SDS011;1778;47.966;7.854;2022-12-07T05:43:52;5.20;;;5.10;;
3527;SDS011;1778;47.966;7.854;2022-12-07T05:44:53;4.90;;;4.80;;
3527;SDS011;1778;47.966;7.854;2022-12-07T05:45:55;5.30;;;5.20;;
3527;SDS011;1778;47.966;7.854;2022-12-07T05:46:57;4.97;;;4.87;;
3527;SDS011;1778;47.966;7.854;2022-12-07T05:47:58;5.17;;;5.07;;
3527;SDS011;1778;47.966;7.854;2022-12-07T05:49:00;5.50;;;5.30;;
3527;SDS011;1778;47.966;7.854;2022-12-07T05:50:02;5.73;;;5.47;;
3527;SDS011;1778;47.966;7.854;2022-12-07T05:51:05;5.07;;;4.83;;
3527;SDS011;1778;47.966;7.854;2022-12-07T05:52:06;5.37;;;5.20;;
3527;SDS011;1778;47.966;7.854;2022-12-07T05:53:08;4.53;;;4.43;;
3527;SDS011;1778;47.966;7.854;2022-12-07T05:54:09;4.40;;;4.30;;
3527;SDS011;1778;47.966;7.854;2022-12-07T05:55:11;5.27;;;4.87;;
3527;SDS011;1778;47.966;7.854;2022-12-07T05:56:14;5.03;;;4.83;;
3527;SDS011;1778;47.966;7.854;2022-12-07T05:57:15;5.57;;;5.17;;
3527;SDS011;1778;47.966;7.854;2022-12-07T05:58:17;5.37;;;5.27;;
3527;SDS011;1778;47.966;7.854;2022-12-07T05:59:37;4.97;;;4.67;;
3527;SDS011;1778;47.966;7.854;2022-12-07T06:00:38;5.03;;;4.90;;
3527;SDS011;1778;47.966;7.854;2022-12-07T06:01:40;4.90;;;4.60;;
3527;SDS011;1778;47.966;7.854;2022-12-07T06:02:41;4.73;;;4.63;;
3527;SDS011;1778;47.966;7.854;2022-12-07T06:03:43;4.80;;;4.70;;
3527;SDS011;1778;47.966;7.854;2022-12-07T06:04:46;4.47;;;4.37;;
3527;SDS011;1778;47.966;7.854;2022-12-07T06:05:47;4.77;;;4.67;;
3527;SDS011;1778;47.966;7.854;2022-12-07T06:06:49;4.53;;;4.47;;
3527;SDS011;1778;47.966;7.854;2022-12-07T06:07:51;34.87;;;6.37;;
3527;SDS011;1778;47.966;7.854;2022-12-07T06:08:53;4.63;;;4.53;;
3527;SDS011;1778;47.966;7.854;2022-12-07T06:09:54;4.67;;;4.57;;
3527;SDS011;1778;47.966;7.854;2022-12-07T06:10:56;4.63;;;4.53;;
3527;SDS011;1778;47.966;7.854;2022-12-07T06:12:16;4.63;;;4.53;;
3527;SDS011;1778;47.966;7.854;2022-12-07T06:13:48;4.53;;;4.43;;
3527;SDS011;1778;47.966;7.854;2022-12-07T06:14:50;4.50;;;4.40;;
3527;SDS011;1778;47.966;7.854;2022-12-07T06:15:51;4.87;;;4.63;;
3527;SDS011;1778;47.966;7.854;2022-12-07T06:16:52;4.83;;;4.73;;
3527;SDS011;1778;47.966;7.854;2022-12-07T06:17:54;4.40;;;4.40;;
3527;SDS011;1778;47.966;7.854;2022-12-07T06:18:56;4.60;;;4.50;;
3527;SDS011;1778;47.966;7.854;2022-12-07T06:19:57;5.20;;;5.00;;
3527;SDS011;1778;47.966;7.854;2022-12-07T06:20:59;4.77;;;4.67;;
3527;SDS011;1778;47.966;7.854;2022-12-07T06:22:00;4.50;;;4.40;;
3527;SDS011;1778;47.966;7.854;2022-12-07T06:23:03;5.17;;;4.97;;
3527;SDS011;1778;47.966;7.854;2022-12-07T06:24:05;4.77;;;4.47;;
3527;SDS011;1778;47.966;7.854;2022-12-07T06:25:07;4.40;;;4.30;;
3527;SDS011;1778;47.966;7.854;2022-12-07T06:26:09;4.97;;;4.87;;
3527;SDS011;1778;47.966;7.854;2022-12-07T06:27:12;4.57;;;4.47;;
3527;SDS011;1778;47.966;7.854;2022-12-07T06:28:14;4.37;;;4.23;;
3527;SDS011;1778;47.966;7.854;2022-12-07T06:29:16;4.93;;;4.83;;
3527;SDS011;1778;47.966;7.854;2022-12-07T06:30:19;4.60;;;4.40;;
3527;SDS011;1778;47.966;7.854;2022-12-07T06:31:20;4.80;;;4.70;;
3527;SDS011;1778;47.966;7.854;2022-12-07T06:32:22;4.97;;;4.87;;
3527;SDS011;1778;47.966;7.854;2022-12-07T06:33:24;4.70;;;4.60;;
3527;SDS011;1778;47.966;7.854;2022-12-07T06:34:26;5.07;;;4.77;;
3527;SDS011;1778;47.966;7.854;2022-12-07T06:35:27;4.50;;;4.40;;
3527;SDS011;1778;47.966;7.854;2022-12-07T06:36:29;4.43;;;4.33;;
3527;SDS011;1778;47.966;7.854;2022-12-07T06:37:31;4.83;;;4.63;;
3527;SDS011;1778;47.966;7.854;2022-12-07T06:38:32;4.13;;;4.03;;
3527;SDS011;1778;47.966;7.854;2022-12-07T06:39:34;4.30;;;4.20;;
3527;SDS011;1778;47.966;7.854;2022-12-07T06:40:35;4.47;;;4.37;;
3527;SDS011;1778;47.966;7.854;2022-12-07T06:41:37;4.33;;;4.33;;
3527;SDS011;1778;47.966;7.854;2022-12-07T06:42:39;4.47;;;4.37;;
3527;SDS011;1778;47.966;7.854;2022-12-07T06:43:41;5.23;;;5.03;;
3527;SDS011;1778;47.966;7.854;2022-12-07T06:44:43;4.23;;;4.13;;
3527;SDS011;1778;47.966;7.854;2022-12-07T06:45:44;4.50;;;4.33;;
3527;SDS011;1778;47.966;7.854;2022-12-07T06:46:46;4.70;;;4.60;;
3527;SDS011;1778;47.966;7.854;2022-12-07T06:47:48;4.13;;;4.13;;
3527;SDS011;1778;47.966;7.854;2022-12-07T06:48:49;5.50;;;5.17;;
3527;SDS011;1778;47.966;7.854;2022-12-07T06:49:51;4.13;;;4.03;;
3527;SDS011;1778;47.966;7.854;2022-12-07T06:50:52;3.83;;;3.73;;
3527;SDS011;1778;47.966;7.854;2022-12-07T06:51:55;3.97;;;3.87;;
3527;SDS011;1778;47.966;7.854;2022-12-07T06:52:56;4.20;;;4.10;;
3527;SDS011;1778;47.966;7.854;2022-12-07T06:53:58;4.60;;;4.47;;
3527;SDS011;1778;47.966;7.854;2022-12-07T06:54:59;4.50;;;4.30;;
3527;SDS011;1778;47.966;7.854;2022-12-07T06:56:01;4.10;;;4.00;;
3527;SDS011;1778;47.966;7.854;2022-12-07T06:57:03;4.30;;;4.20;;
3527;SDS011;1778;47.966;7.854;2022-12-07T06:58:04;5.03;;;4.83;;
3527;SDS011;1778;47.966;7.854;2022-12-07T06:59:06;4.50;;;4.40;;
3527;SDS011;1778;47.966;7.854;2022-12-07T07:00:08;3.90;;;3.90;;
3527;SDS011;1778;47.966;7.854;2022-12-07T07:01:13;4.50;;;4.30;;
3527;SDS011;1778;47.966;7.854;2022-12-07T07:02:17;4.20;;;4.10;;
3527;SDS011;1778;47.966;7.854;2022-12-07T07:03:19;4.87;;;4.67;;
3527;SDS011;1778;47.966;7.854;2022-12-07T07:04:20;4.40;;;4.40;;
3527;SDS011;1778;47.966;7.854;2022-12-07T07:05:22;5.23;;;5.03;;